sensor_id;sensor_type;location;lat;lon;timestamp;temperature;humidity
14733;DHT22;7457;50.960;6.830;2023-03-12T00:01:44;0.80;79.60
14733;DHT22;7457;50.960;6.830;2023-03-12T00:04:10;0.80;79.70
14733;DHT22;7457;50.960;6.830;2023-03-12T00:06:36;0.80;79.80
14733;DHT22;7457;50.960;6.830;2023-03-12T00:09:02;0.80;79.90
14733;DHT22;7457;50.960;6.830;2023-03-12T00:11:29;0.80;80.10
14733;DHT22;7457;50.960;6.830;2023-03-12T00:13:57;0.80;80.20
14733;DHT22;7457;50.960;6.830;2023-03-12T00:16:23;0.80;80.30
14733;DHT22;7457;50.960;6.830;2023-03-12T00:18:51;0.80;80.40
14733;DHT22;7457;50.960;6.830;2023-03-12T00:21:17;0.80;80.50
14733;DHT22;7457;50.960;6.830;2023-03-12T00:23:46;0.80;80.60
14733;DHT22;7457;50.960;6.830;2023-03-12T00:26:13;0.80;80.70
14733;DHT22;7457;50.960;6.830;2023-03-12T00:28:39;0.80;80.80
14733;DHT22;7457;50.960;6.830;2023-03-12T00:33:41;0.80;80.90
14733;DHT22;7457;50.960;6.830;2023-03-12T00:36:07;0.80;80.80
14733;DHT22;7457;50.960;6.830;2023-03-12T00:38:33;0.90;80.80
14733;DHT22;7457;50.960;6.830;2023-03-12T00:40:59;0.90;80.70
14733;DHT22;7457;50.960;6.830;2023-03-12T00:43:24;0.90;80.60
14733;DHT22;7457;50.960;6.830;2023-03-12T00:45:50;0.90;80.60
14733;DHT22;7457;50.960;6.830;2023-03-12T00:48:15;0.90;80.50
14733;DHT22;7457;50.960;6.830;2023-03-12T00:50:41;0.90;80.40
14733;DHT22;7457;50.960;6.830;2023-03-12T00:53:07;0.90;80.30
14733;DHT22;7457;50.960;6.830;2023-03-12T00:55:32;1.00;80.30
14733;DHT22;7457;50.960;6.830;2023-03-12T00:57:58;1.00;80.20
14733;DHT22;7457;50.960;6.830;2023-03-12T01:00:24;1.00;79.90
14733;DHT22;7457;50.960;6.830;2023-03-12T01:02:49;1.00;79.70
14733;DHT22;7457;50.960;6.830;2023-03-12T01:05:15;1.10;79.50
14733;DHT22;7457;50.960;6.830;2023-03-12T01:07:42;1.10;79.40
14733;DHT22;7457;50.960;6.830;2023-03-12T01:10:08;1.10;79.40
14733;DHT22;7457;50.960;6.830;2023-03-12T01:12:34;1.10;79.30
14733;DHT22;7457;50.960;6.830;2023-03-12T01:15:00;1.20;79.20
14733;DHT22;7457;50.960;6.830;2023-03-12T01:17:25;1.10;79.10
14733;DHT22;7457;50.960;6.830;2023-03-12T01:19:51;1.10;79.00
14733;DHT22;7457;50.960;6.830;2023-03-12T01:22:17;1.20;78.90
14733;DHT22;7457;50.960;6.830;2023-03-12T01:24:42;1.20;79.00
14733;DHT22;7457;50.960;6.830;2023-03-12T01:27:08;1.20;79.00
14733;DHT22;7457;50.960;6.830;2023-03-12T01:29:34;1.20;79.00
14733;DHT22;7457;50.960;6.830;2023-03-12T01:31:59;1.20;79.00
14733;DHT22;7457;50.960;6.830;2023-03-12T01:34:25;1.20;79.10
14733;DHT22;7457;50.960;6.830;2023-03-12T01:36:51;1.20;79.10
14733;DHT22;7457;50.960;6.830;2023-03-12T01:39:16;1.20;79.00
14733;DHT22;7457;50.960;6.830;2023-03-12T01:41:42;1.20;79.00
14733;DHT22;7457;50.960;6.830;2023-03-12T01:44:12;1.20;79.00
14733;DHT22;7457;50.960;6.830;2023-03-12T01:46:40;1.20;79.00
14733;DHT22;7457;50.960;6.830;2023-03-12T01:51:50;1.20;79.00
14733;DHT22;7457;50.960;6.830;2023-03-12T01:54:24;1.20;79.20
14733;DHT22;7457;50.960;6.830;2023-03-12T01:56:50;1.20;79.30
14733;DHT22;7457;50.960;6.830;2023-03-12T01:59:23;1.20;79.30
14733;DHT22;7457;50.960;6.830;2023-03-12T02:01:50;1.20;79.30
14733;DHT22;7457;50.960;6.830;2023-03-12T02:04:18;1.20;79.50
14733;DHT22;7457;50.960;6.830;2023-03-12T02:06:49;1.20;79.50
14733;DHT22;7457;50.960;6.830;2023-03-12T02:09:16;1.30;79.40
14733;DHT22;7457;50.960;6.830;2023-03-12T02:11:44;1.30;79.30
14733;DHT22;7457;50.960;6.830;2023-03-12T02:14:10;1.30;79.20
14733;DHT22;7457;50.960;6.830;2023-03-12T02:16:36;1.30;79.10
14733;DHT22;7457;50.960;6.830;2023-03-12T02:19:04;1.30;79.10
14733;DHT22;7457;50.960;6.830;2023-03-12T02:21:33;1.30;79.10
14733;DHT22;7457;50.960;6.830;2023-03-12T02:26:29;1.30;79.00
14733;DHT22;7457;50.960;6.830;2023-03-12T02:28:55;1.40;79.00
14733;DHT22;7457;50.960;6.830;2023-03-12T02:31:24;1.40;79.00
14733;DHT22;7457;50.960;6.830;2023-03-12T02:33:51;1.40;79.10
14733;DHT22;7457;50.960;6.830;2023-03-12T02:36:18;1.40;79.10
14733;DHT22;7457;50.960;6.830;2023-03-12T02:38:49;1.50;79.00
14733;DHT22;7457;50.960;6.830;2023-03-12T02:44:10;1.50;79.00
14733;DHT22;7457;50.960;6.830;2023-03-12T02:46:42;1.50;79.00
14733;DHT22;7457;50.960;6.830;2023-03-12T02:49:09;1.60;78.90
14733;DHT22;7457;50.960;6.830;2023-03-12T02:51:37;1.60;78.80
14733;DHT22;7457;50.960;6.830;2023-03-12T02:54:02;1.60;78.80
14733;DHT22;7457;50.960;6.830;2023-03-12T02:56:29;1.70;78.70
14733;DHT22;7457;50.960;6.830;2023-03-12T02:58:55;1.70;78.60
14733;DHT22;7457;50.960;6.830;2023-03-12T03:01:20;1.70;78.50
14733;DHT22;7457;50.960;6.830;2023-03-12T03:03:46;1.70;78.50
14733;DHT22;7457;50.960;6.830;2023-03-12T03:06:12;1.70;78.50
14733;DHT22;7457;50.960;6.830;2023-03-12T03:08:39;1.70;78.50
14733;DHT22;7457;50.960;6.830;2023-03-12T03:11:05;1.70;78.50
14733;DHT22;7457;50.960;6.830;2023-03-12T03:13:31;1.70;78.50
14733;DHT22;7457;50.960;6.830;2023-03-12T03:15:57;1.70;78.50
14733;DHT22;7457;50.960;6.830;2023-03-12T03:18:24;1.70;78.50
14733;DHT22;7457;50.960;6.830;2023-03-12T03:20:58;1.70;78.50
14733;DHT22;7457;50.960;6.830;2023-03-12T03:23:24;1.70;78.50
14733;DHT22;7457;50.960;6.830;2023-03-12T03:25:50;1.60;78.40
14733;DHT22;7457;50.960;6.830;2023-03-12T03:28:21;1.60;78.30
14733;DHT22;7457;50.960;6.830;2023-03-12T03:30:47;1.60;78.30
14733;DHT22;7457;50.960;6.830;2023-03-12T03:33:13;1.60;78.20
14733;DHT22;7457;50.960;6.830;2023-03-12T03:35:38;1.60;78.20
14733;DHT22;7457;50.960;6.830;2023-03-12T03:38:04;1.60;78.10
14733;DHT22;7457;50.960;6.830;2023-03-12T03:40:30;1.60;78.10
14733;DHT22;7457;50.960;6.830;2023-03-12T03:42:55;1.60;78.10
14733;DHT22;7457;50.960;6.830;2023-03-12T03:45:21;1.60;78.20
14733;DHT22;7457;50.960;6.830;2023-03-12T03:47:47;1.60;78.10
14733;DHT22;7457;50.960;6.830;2023-03-12T03:50:12;1.70;78.20
14733;DHT22;7457;50.960;6.830;2023-03-12T03:52:38;1.70;78.10
14733;DHT22;7457;50.960;6.830;2023-03-12T03:55:04;1.70;78.00
14733;DHT22;7457;50.960;6.830;2023-03-12T03:57:30;1.70;78.00
14733;DHT22;7457;50.960;6.830;2023-03-12T03:59:55;1.70;78.00
14733;DHT22;7457;50.960;6.830;2023-03-12T04:02:24;1.80;78.00
14733;DHT22;7457;50.960;6.830;2023-03-12T04:04:50;1.80;77.90
14733;DHT22;7457;50.960;6.830;2023-03-12T04:07:16;1.80;77.90
14733;DHT22;7457;50.960;6.830;2023-03-12T04:09:41;1.80;77.60
14733;DHT22;7457;50.960;6.830;2023-03-12T04:12:07;1.80;77.40
14733;DHT22;7457;50.960;6.830;2023-03-12T04:14:33;1.90;77.30
14733;DHT22;7457;50.960;6.830;2023-03-12T04:16:59;1.90;77.20
14733;DHT22;7457;50.960;6.830;2023-03-12T04:19:24;1.90;77.10
14733;DHT22;7457;50.960;6.830;2023-03-12T04:21:50;1.90;77.00
14733;DHT22;7457;50.960;6.830;2023-03-12T04:24:16;2.00;77.00
14733;DHT22;7457;50.960;6.830;2023-03-12T04:26:42;1.90;76.90
14733;DHT22;7457;50.960;6.830;2023-03-12T04:29:08;2.00;76.80
14733;DHT22;7457;50.960;6.830;2023-03-12T04:31:33;2.00;76.80
14733;DHT22;7457;50.960;6.830;2023-03-12T04:33:59;2.00;77.00
14733;DHT22;7457;50.960;6.830;2023-03-12T04:36:25;2.00;77.10
14733;DHT22;7457;50.960;6.830;2023-03-12T04:38:50;2.00;77.30
14733;DHT22;7457;50.960;6.830;2023-03-12T04:41:16;2.00;77.40
14733;DHT22;7457;50.960;6.830;2023-03-12T04:43:42;1.90;77.50
14733;DHT22;7457;50.960;6.830;2023-03-12T04:46:08;1.90;77.80
14733;DHT22;7457;50.960;6.830;2023-03-12T04:48:34;1.90;78.30
14733;DHT22;7457;50.960;6.830;2023-03-12T04:50:59;1.80;78.90
14733;DHT22;7457;50.960;6.830;2023-03-12T04:53:25;1.80;79.40
14733;DHT22;7457;50.960;6.830;2023-03-12T04:55:51;1.70;80.00
14733;DHT22;7457;50.960;6.830;2023-03-12T04:58:18;1.60;80.80
14733;DHT22;7457;50.960;6.830;2023-03-12T05:00:44;1.50;81.30
14733;DHT22;7457;50.960;6.830;2023-03-12T05:03:10;1.40;82.00
14733;DHT22;7457;50.960;6.830;2023-03-12T05:05:35;1.30;82.80
14733;DHT22;7457;50.960;6.830;2023-03-12T05:08:02;1.30;83.50
14733;DHT22;7457;50.960;6.830;2023-03-12T05:10:28;1.20;84.20
14733;DHT22;7457;50.960;6.830;2023-03-12T05:12:53;1.20;84.80
14733;DHT22;7457;50.960;6.830;2023-03-12T05:15:19;1.20;84.90
14733;DHT22;7457;50.960;6.830;2023-03-12T05:17:44;1.20;85.50
14733;DHT22;7457;50.960;6.830;2023-03-12T05:20:11;1.20;86.00
14733;DHT22;7457;50.960;6.830;2023-03-12T05:22:38;1.20;86.40
14733;DHT22;7457;50.960;6.830;2023-03-12T05:25:04;1.10;86.60
14733;DHT22;7457;50.960;6.830;2023-03-12T05:27:30;1.10;87.00
14733;DHT22;7457;50.960;6.830;2023-03-12T05:29:55;1.20;87.30
14733;DHT22;7457;50.960;6.830;2023-03-12T05:32:21;1.20;87.90
14733;DHT22;7457;50.960;6.830;2023-03-12T05:34:47;1.10;88.10
14733;DHT22;7457;50.960;6.830;2023-03-12T05:37:13;1.20;88.30
14733;DHT22;7457;50.960;6.830;2023-03-12T05:39:38;1.20;88.60
14733;DHT22;7457;50.960;6.830;2023-03-12T05:42:13;1.20;88.70
14733;DHT22;7457;50.960;6.830;2023-03-12T05:44:40;1.20;89.30
14733;DHT22;7457;50.960;6.830;2023-03-12T05:47:06;1.20;89.40
14733;DHT22;7457;50.960;6.830;2023-03-12T05:49:32;1.20;89.40
14733;DHT22;7457;50.960;6.830;2023-03-12T05:51:58;1.20;89.70
14733;DHT22;7457;50.960;6.830;2023-03-12T05:54:24;1.20;89.20
14733;DHT22;7457;50.960;6.830;2023-03-12T05:56:50;1.30;89.30
14733;DHT22;7457;50.960;6.830;2023-03-12T05:59:16;1.20;89.40
14733;DHT22;7457;50.960;6.830;2023-03-12T06:01:42;1.30;90.10
14733;DHT22;7457;50.960;6.830;2023-03-12T06:04:07;1.30;90.20
14733;DHT22;7457;50.960;6.830;2023-03-12T06:06:34;1.30;90.40
14733;DHT22;7457;50.960;6.830;2023-03-12T06:09:01;1.30;90.80
14733;DHT22;7457;50.960;6.830;2023-03-12T06:11:28;1.30;91.00
14733;DHT22;7457;50.960;6.830;2023-03-12T06:13:55;1.30;91.50
14733;DHT22;7457;50.960;6.830;2023-03-12T06:16:23;1.20;91.80
14733;DHT22;7457;50.960;6.830;2023-03-12T06:18:53;1.20;92.20
14733;DHT22;7457;50.960;6.830;2023-03-12T06:21:21;1.20;92.50
14733;DHT22;7457;50.960;6.830;2023-03-12T06:23:48;1.20;92.50
14733;DHT22;7457;50.960;6.830;2023-03-12T06:26:15;1.30;92.80
14733;DHT22;7457;50.960;6.830;2023-03-12T06:28:41;1.30;92.90
14733;DHT22;7457;50.960;6.830;2023-03-12T06:31:08;1.30;93.10
14733;DHT22;7457;50.960;6.830;2023-03-12T06:33:34;1.30;93.20
14733;DHT22;7457;50.960;6.830;2023-03-12T06:36:02;1.30;93.30
14733;DHT22;7457;50.960;6.830;2023-03-12T06:38:28;1.40;93.30
14733;DHT22;7457;50.960;6.830;2023-03-12T06:43:20;1.40;93.50
14733;DHT22;7457;50.960;6.830;2023-03-12T06:45:45;1.40;93.70
14733;DHT22;7457;50.960;6.830;2023-03-12T06:48:11;1.50;93.80
14733;DHT22;7457;50.960;6.830;2023-03-12T06:50:36;1.50;93.90
14733;DHT22;7457;50.960;6.830;2023-03-12T06:53:02;1.50;94.10
14733;DHT22;7457;50.960;6.830;2023-03-12T06:55:28;1.50;94.40
14733;DHT22;7457;50.960;6.830;2023-03-12T06:57:54;1.60;94.60
14733;DHT22;7457;50.960;6.830;2023-03-12T07:00:20;1.60;94.50
14733;DHT22;7457;50.960;6.830;2023-03-12T07:02:45;1.70;94.50
14733;DHT22;7457;50.960;6.830;2023-03-12T07:05:11;1.70;94.50
14733;DHT22;7457;50.960;6.830;2023-03-12T07:07:36;1.80;94.20
14733;DHT22;7457;50.960;6.830;2023-03-12T07:10:03;1.90;93.90
14733;DHT22;7457;50.960;6.830;2023-03-12T07:12:31;1.90;93.80
14733;DHT22;7457;50.960;6.830;2023-03-12T07:14:57;1.90;93.30
14733;DHT22;7457;50.960;6.830;2023-03-12T07:17:23;2.00;92.90
14733;DHT22;7457;50.960;6.830;2023-03-12T07:19:50;2.00;92.40
14733;DHT22;7457;50.960;6.830;2023-03-12T07:22:16;2.00;92.10
14733;DHT22;7457;50.960;6.830;2023-03-12T07:24:42;2.00;91.70
14733;DHT22;7457;50.960;6.830;2023-03-12T07:27:08;2.00;91.40
14733;DHT22;7457;50.960;6.830;2023-03-12T07:29:33;2.00;91.60
14733;DHT22;7457;50.960;6.830;2023-03-12T07:31:59;2.00;91.60
14733;DHT22;7457;50.960;6.830;2023-03-12T07:34:25;2.00;91.40
14733;DHT22;7457;50.960;6.830;2023-03-12T07:36:50;2.00;91.70
14733;DHT22;7457;50.960;6.830;2023-03-12T07:39:16;2.10;92.00
14733;DHT22;7457;50.960;6.830;2023-03-12T07:41:42;2.10;91.80
14733;DHT22;7457;50.960;6.830;2023-03-12T07:44:07;2.20;91.50
14733;DHT22;7457;50.960;6.830;2023-03-12T07:46:34;2.20;91.80
14733;DHT22;7457;50.960;6.830;2023-03-12T07:48:59;2.30;91.80
14733;DHT22;7457;50.960;6.830;2023-03-12T07:51:25;2.30;91.60
14733;DHT22;7457;50.960;6.830;2023-03-12T07:53:51;2.40;91.70
14733;DHT22;7457;50.960;6.830;2023-03-12T07:56:17;2.40;91.90
14733;DHT22;7457;50.960;6.830;2023-03-12T07:58:43;2.50;91.70
14733;DHT22;7457;50.960;6.830;2023-03-12T08:01:08;2.50;91.80
14733;DHT22;7457;50.960;6.830;2023-03-12T08:03:34;2.60;91.40
14733;DHT22;7457;50.960;6.830;2023-03-12T08:06:02;2.60;91.30
14733;DHT22;7457;50.960;6.830;2023-03-12T08:08:28;2.70;91.10
14733;DHT22;7457;50.960;6.830;2023-03-12T08:10:54;2.70;91.00
14733;DHT22;7457;50.960;6.830;2023-03-12T08:13:20;2.70;91.00
14733;DHT22;7457;50.960;6.830;2023-03-12T08:15:48;2.80;90.90
14733;DHT22;7457;50.960;6.830;2023-03-12T08:18:15;2.80;91.10
14733;DHT22;7457;50.960;6.830;2023-03-12T08:20:40;2.80;91.50
14733;DHT22;7457;50.960;6.830;2023-03-12T08:23:06;2.80;91.80
14733;DHT22;7457;50.960;6.830;2023-03-12T08:25:32;2.90;92.10
14733;DHT22;7457;50.960;6.830;2023-03-12T08:27:57;2.90;92.60
14733;DHT22;7457;50.960;6.830;2023-03-12T08:30:23;2.90;93.00
14733;DHT22;7457;50.960;6.830;2023-03-12T08:32:49;2.90;93.50
14733;DHT22;7457;50.960;6.830;2023-03-12T08:35:15;2.80;94.10
14733;DHT22;7457;50.960;6.830;2023-03-12T08:37:41;2.80;94.90
14733;DHT22;7457;50.960;6.830;2023-03-12T08:40:07;2.80;95.60
14733;DHT22;7457;50.960;6.830;2023-03-12T08:42:40;2.90;96.30
14733;DHT22;7457;50.960;6.830;2023-03-12T08:45:07;2.90;96.80
14733;DHT22;7457;50.960;6.830;2023-03-12T08:47:33;2.90;97.20
14733;DHT22;7457;50.960;6.830;2023-03-12T08:49:59;2.90;97.40
14733;DHT22;7457;50.960;6.830;2023-03-12T08:52:25;2.90;97.90
14733;DHT22;7457;50.960;6.830;2023-03-12T08:54:51;3.00;98.40
14733;DHT22;7457;50.960;6.830;2023-03-12T08:57:16;3.00;99.00
14733;DHT22;7457;50.960;6.830;2023-03-12T08:59:42;3.10;99.20
14733;DHT22;7457;50.960;6.830;2023-03-12T09:02:11;3.20;99.40
14733;DHT22;7457;50.960;6.830;2023-03-12T09:04:36;3.30;99.80
14733;DHT22;7457;50.960;6.830;2023-03-12T09:07:03;3.30;99.70
14733;DHT22;7457;50.960;6.830;2023-03-12T09:09:28;3.40;99.40
14733;DHT22;7457;50.960;6.830;2023-03-12T09:11:54;3.40;99.90
14733;DHT22;7457;50.960;6.830;2023-03-12T09:14:20;3.40;99.80
14733;DHT22;7457;50.960;6.830;2023-03-12T09:16:45;3.40;100.00
14733;DHT22;7457;50.960;6.830;2023-03-12T09:19:11;3.50;100.00
14733;DHT22;7457;50.960;6.830;2023-03-12T09:21:37;3.50;100.00
14733;DHT22;7457;50.960;6.830;2023-03-12T09:24:04;3.50;100.00
14733;DHT22;7457;50.960;6.830;2023-03-12T09:26:30;3.60;100.00
14733;DHT22;7457;50.960;6.830;2023-03-12T09:28:56;3.60;100.00
14733;DHT22;7457;50.960;6.830;2023-03-12T09:31:23;3.70;100.00
14733;DHT22;7457;50.960;6.830;2023-03-12T09:33:49;3.70;100.00
14733;DHT22;7457;50.960;6.830;2023-03-12T09:36:15;3.80;100.00
14733;DHT22;7457;50.960;6.830;2023-03-12T09:38:40;3.80;100.00
14733;DHT22;7457;50.960;6.830;2023-03-12T09:41:16;3.90;100.00
14733;DHT22;7457;50.960;6.830;2023-03-12T09:43:46;3.90;100.00
14733;DHT22;7457;50.960;6.830;2023-03-12T09:46:34;3.90;100.00
14733;DHT22;7457;50.960;6.830;2023-03-12T09:49:04;4.00;100.00
14733;DHT22;7457;50.960;6.830;2023-03-12T09:51:37;4.00;100.00
14733;DHT22;7457;50.960;6.830;2023-03-12T09:54:09;4.10;100.00
14733;DHT22;7457;50.960;6.830;2023-03-12T09:56:39;4.10;100.00
14733;DHT22;7457;50.960;6.830;2023-03-12T09:59:10;4.20;100.00
14733;DHT22;7457;50.960;6.830;2023-03-12T10:04:06;4.30;100.00
14733;DHT22;7457;50.960;6.830;2023-03-12T10:12:13;4.60;100.00
14733;DHT22;7457;50.960;6.830;2023-03-12T10:20:24;4.80;100.00
14733;DHT22;7457;50.960;6.830;2023-03-12T10:25:31;4.90;100.00
14733;DHT22;7457;50.960;6.830;2023-03-12T10:31:00;4.90;100.00
14733;DHT22;7457;50.960;6.830;2023-03-12T10:33:43;5.00;100.00
14733;DHT22;7457;50.960;6.830;2023-03-12T10:36:20;5.00;100.00
14733;DHT22;7457;50.960;6.830;2023-03-12T10:38:47;5.10;100.00
14733;DHT22;7457;50.960;6.830;2023-03-12T10:41:22;5.10;100.00
14733;DHT22;7457;50.960;6.830;2023-03-12T10:43:49;5.20;100.00
14733;DHT22;7457;50.960;6.830;2023-03-12T10:49:34;5.40;100.00
14733;DHT22;7457;50.960;6.830;2023-03-12T10:52:15;5.50;100.00
14733;DHT22;7457;50.960;6.830;2023-03-12T10:54:42;5.60;100.00
14733;DHT22;7457;50.960;6.830;2023-03-12T10:57:10;5.70;100.00
14733;DHT22;7457;50.960;6.830;2023-03-12T10:59:40;5.80;100.00
14733;DHT22;7457;50.960;6.830;2023-03-12T11:02:38;5.90;100.00
14733;DHT22;7457;50.960;6.830;2023-03-12T11:05:46;6.00;100.00
14733;DHT22;7457;50.960;6.830;2023-03-12T11:08:21;6.30;100.00
14733;DHT22;7457;50.960;6.830;2023-03-12T11:10:48;6.70;100.00
14733;DHT22;7457;50.960;6.830;2023-03-12T11:13:29;7.00;100.00
14733;DHT22;7457;50.960;6.830;2023-03-12T11:16:01;7.20;100.00
14733;DHT22;7457;50.960;6.830;2023-03-12T11:18:35;7.50;100.00
14733;DHT22;7457;50.960;6.830;2023-03-12T11:23:34;7.80;100.00
14733;DHT22;7457;50.960;6.830;2023-03-12T11:26:04;8.00;100.00
14733;DHT22;7457;50.960;6.830;2023-03-12T11:28:37;8.10;100.00
14733;DHT22;7457;50.960;6.830;2023-03-12T11:31:10;8.20;100.00
14733;DHT22;7457;50.960;6.830;2023-03-12T11:33:38;8.30;100.00
14733;DHT22;7457;50.960;6.830;2023-03-12T11:41:56;8.70;100.00
14733;DHT22;7457;50.960;6.830;2023-03-12T11:44:34;8.80;100.00
14733;DHT22;7457;50.960;6.830;2023-03-12T11:49:52;8.90;100.00
14733;DHT22;7457;50.960;6.830;2023-03-12T11:53:05;9.00;100.00
14733;DHT22;7457;50.960;6.830;2023-03-12T12:06:39;9.30;100.00
14733;DHT22;7457;50.960;6.830;2023-03-12T12:20:18;9.80;100.00
14733;DHT22;7457;50.960;6.830;2023-03-12T12:23:14;9.90;100.00
14733;DHT22;7457;50.960;6.830;2023-03-12T12:36:23;11.10;99.70
14733;DHT22;7457;50.960;6.830;2023-03-12T12:38:57;11.20;98.90
14733;DHT22;7457;50.960;6.830;2023-03-12T12:41:35;11.20;98.00
14733;DHT22;7457;50.960;6.830;2023-03-12T12:44:26;11.20;97.20
14733;DHT22;7457;50.960;6.830;2023-03-12T12:46:54;11.20;96.90
14733;DHT22;7457;50.960;6.830;2023-03-12T12:49:48;11.10;96.60
14733;DHT22;7457;50.960;6.830;2023-03-12T12:52:20;11.10;96.60
14733;DHT22;7457;50.960;6.830;2023-03-12T12:55:00;11.10;96.30
14733;DHT22;7457;50.960;6.830;2023-03-12T12:57:46;11.10;96.50
14733;DHT22;7457;50.960;6.830;2023-03-12T13:00:19;11.20;97.10
14733;DHT22;7457;50.960;6.830;2023-03-12T13:02:46;11.40;96.90
14733;DHT22;7457;50.960;6.830;2023-03-12T13:08:01;11.60;94.10
14733;DHT22;7457;50.960;6.830;2023-03-12T13:13:09;11.40;93.20
14733;DHT22;7457;50.960;6.830;2023-03-12T13:15:38;11.30;93.30
14733;DHT22;7457;50.960;6.830;2023-03-12T13:18:14;11.30;93.80
14733;DHT22;7457;50.960;6.830;2023-03-12T13:21:06;11.30;93.80
14733;DHT22;7457;50.960;6.830;2023-03-12T13:23:58;11.30;93.80
14733;DHT22;7457;50.960;6.830;2023-03-12T13:26:52;11.40;93.20
14733;DHT22;7457;50.960;6.830;2023-03-12T13:29:36;11.40;93.20
14733;DHT22;7457;50.960;6.830;2023-03-12T13:32:03;11.50;92.70
14733;DHT22;7457;50.960;6.830;2023-03-12T13:34:40;11.50;92.40
14733;DHT22;7457;50.960;6.830;2023-03-12T13:37:19;11.50;92.10
14733;DHT22;7457;50.960;6.830;2023-03-12T13:39:45;11.50;92.10
14733;DHT22;7457;50.960;6.830;2023-03-12T13:44:48;11.50;91.00
14733;DHT22;7457;50.960;6.830;2023-03-12T13:47:29;11.50;90.60
14733;DHT22;7457;50.960;6.830;2023-03-12T13:50:13;11.50;89.90
14733;DHT22;7457;50.960;6.830;2023-03-12T13:55:19;11.50;89.40
14733;DHT22;7457;50.960;6.830;2023-03-12T13:57:49;11.50;89.40
14733;DHT22;7457;50.960;6.830;2023-03-12T14:00:44;11.50;89.20
14733;DHT22;7457;50.960;6.830;2023-03-12T14:03:28;11.50;88.90
14733;DHT22;7457;50.960;6.830;2023-03-12T14:06:16;11.50;89.00
14733;DHT22;7457;50.960;6.830;2023-03-12T14:11:35;11.70;88.10
14733;DHT22;7457;50.960;6.830;2023-03-12T14:14:36;11.80;87.40
14733;DHT22;7457;50.960;6.830;2023-03-12T14:17:19;11.90;86.10
14733;DHT22;7457;50.960;6.830;2023-03-12T14:20:37;11.90;85.60
14733;DHT22;7457;50.960;6.830;2023-03-12T14:22:38;11.90;85.20
14733;DHT22;7457;50.960;6.830;2023-03-12T14:27:55;12.00;85.20
14733;DHT22;7457;50.960;6.830;2023-03-12T14:32:56;12.00;84.10
14733;DHT22;7457;50.960;6.830;2023-03-12T14:35:46;12.00;83.40
14733;DHT22;7457;50.960;6.830;2023-03-12T14:38:19;12.00;83.00
14733;DHT22;7457;50.960;6.830;2023-03-12T14:43:53;11.90;83.20
14733;DHT22;7457;50.960;6.830;2023-03-12T14:46:21;11.90;83.20
14733;DHT22;7457;50.960;6.830;2023-03-12T14:48:49;11.90;81.90
14733;DHT22;7457;50.960;6.830;2023-03-12T14:51:23;11.90;81.60
14733;DHT22;7457;50.960;6.830;2023-03-12T14:53:50;11.90;82.00
14733;DHT22;7457;50.960;6.830;2023-03-12T14:56:27;11.90;81.90
14733;DHT22;7457;50.960;6.830;2023-03-12T14:58:54;12.00;81.80
14733;DHT22;7457;50.960;6.830;2023-03-12T15:01:23;12.00;81.50
14733;DHT22;7457;50.960;6.830;2023-03-12T15:03:59;12.00;81.10
14733;DHT22;7457;50.960;6.830;2023-03-12T15:06:37;12.00;81.00
14733;DHT22;7457;50.960;6.830;2023-03-12T15:09:06;12.00;81.20
14733;DHT22;7457;50.960;6.830;2023-03-12T15:11:34;11.90;80.30
14733;DHT22;7457;50.960;6.830;2023-03-12T15:14:13;11.80;80.10
14733;DHT22;7457;50.960;6.830;2023-03-12T15:16:40;11.70;80.10
14733;DHT22;7457;50.960;6.830;2023-03-12T15:19:12;11.70;79.90
14733;DHT22;7457;50.960;6.830;2023-03-12T15:21:38;11.60;80.00
14733;DHT22;7457;50.960;6.830;2023-03-12T15:24:05;11.50;80.10
14733;DHT22;7457;50.960;6.830;2023-03-12T15:26:33;11.50;80.30
14733;DHT22;7457;50.960;6.830;2023-03-12T15:29:04;11.40;80.50
14733;DHT22;7457;50.960;6.830;2023-03-12T15:31:41;11.30;80.20
14733;DHT22;7457;50.960;6.830;2023-03-12T15:34:09;11.30;79.60
14733;DHT22;7457;50.960;6.830;2023-03-12T15:36:35;11.30;79.30
14733;DHT22;7457;50.960;6.830;2023-03-12T15:39:05;11.30;78.80
14733;DHT22;7457;50.960;6.830;2023-03-12T15:41:42;11.30;77.50
14733;DHT22;7457;50.960;6.830;2023-03-12T15:44:27;11.30;77.80
14733;DHT22;7457;50.960;6.830;2023-03-12T15:47:00;11.40;78.00
14733;DHT22;7457;50.960;6.830;2023-03-12T15:49:30;11.40;77.10
14733;DHT22;7457;50.960;6.830;2023-03-12T15:52:03;11.40;75.30
14733;DHT22;7457;50.960;6.830;2023-03-12T15:54:30;11.40;75.00
14733;DHT22;7457;50.960;6.830;2023-03-12T15:57:19;11.40;75.00
14733;DHT22;7457;50.960;6.830;2023-03-12T15:59:50;11.40;75.50
14733;DHT22;7457;50.960;6.830;2023-03-12T16:02:36;11.40;75.70
14733;DHT22;7457;50.960;6.830;2023-03-12T16:05:02;11.40;75.40
14733;DHT22;7457;50.960;6.830;2023-03-12T16:07:28;11.30;74.80
14733;DHT22;7457;50.960;6.830;2023-03-12T16:09:54;11.30;75.00
14733;DHT22;7457;50.960;6.830;2023-03-12T16:12:20;11.30;74.80
14733;DHT22;7457;50.960;6.830;2023-03-12T16:14:47;11.30;75.10
14733;DHT22;7457;50.960;6.830;2023-03-12T16:17:14;11.20;75.30
14733;DHT22;7457;50.960;6.830;2023-03-12T16:19:43;11.20;75.40
14733;DHT22;7457;50.960;6.830;2023-03-12T16:22:09;11.10;75.70
14733;DHT22;7457;50.960;6.830;2023-03-12T16:24:34;11.10;75.80
14733;DHT22;7457;50.960;6.830;2023-03-12T16:27:00;11.10;75.60
14733;DHT22;7457;50.960;6.830;2023-03-12T16:29:37;11.10;75.70
14733;DHT22;7457;50.960;6.830;2023-03-12T16:32:13;11.10;76.00
14733;DHT22;7457;50.960;6.830;2023-03-12T16:34:40;11.00;75.90
14733;DHT22;7457;50.960;6.830;2023-03-12T16:37:12;11.00;75.80
14733;DHT22;7457;50.960;6.830;2023-03-12T16:39:38;11.00;75.80
14733;DHT22;7457;50.960;6.830;2023-03-12T16:42:11;10.90;75.90
14733;DHT22;7457;50.960;6.830;2023-03-12T16:44:39;10.90;75.30
14733;DHT22;7457;50.960;6.830;2023-03-12T16:47:10;10.90;75.20
14733;DHT22;7457;50.960;6.830;2023-03-12T16:49:36;10.90;75.20
14733;DHT22;7457;50.960;6.830;2023-03-12T16:52:10;10.90;75.60
14733;DHT22;7457;50.960;6.830;2023-03-12T16:54:37;10.90;75.50
14733;DHT22;7457;50.960;6.830;2023-03-12T16:57:03;10.80;75.50
14733;DHT22;7457;50.960;6.830;2023-03-12T16:59:28;10.80;75.70
14733;DHT22;7457;50.960;6.830;2023-03-12T17:01:57;10.80;75.60
14733;DHT22;7457;50.960;6.830;2023-03-12T17:04:23;10.70;75.80
14733;DHT22;7457;50.960;6.830;2023-03-12T17:06:48;10.70;75.80
14733;DHT22;7457;50.960;6.830;2023-03-12T17:09:14;10.60;75.70
14733;DHT22;7457;50.960;6.830;2023-03-12T17:11:40;10.60;75.90
14733;DHT22;7457;50.960;6.830;2023-03-12T17:14:17;10.50;76.10
14733;DHT22;7457;50.960;6.830;2023-03-12T17:16:44;10.50;76.30
14733;DHT22;7457;50.960;6.830;2023-03-12T17:19:09;10.40;76.40
14733;DHT22;7457;50.960;6.830;2023-03-12T17:21:35;10.30;76.60
14733;DHT22;7457;50.960;6.830;2023-03-12T17:24:01;10.20;76.70
14733;DHT22;7457;50.960;6.830;2023-03-12T17:26:27;10.10;77.00
14733;DHT22;7457;50.960;6.830;2023-03-12T17:28:53;10.10;77.10
14733;DHT22;7457;50.960;6.830;2023-03-12T17:31:19;10.00;77.40
14733;DHT22;7457;50.960;6.830;2023-03-12T17:33:45;9.90;77.60
14733;DHT22;7457;50.960;6.830;2023-03-12T17:36:11;9.90;77.80
14733;DHT22;7457;50.960;6.830;2023-03-12T17:38:37;9.80;78.00
14733;DHT22;7457;50.960;6.830;2023-03-12T17:41:03;9.80;78.20
14733;DHT22;7457;50.960;6.830;2023-03-12T17:43:30;9.80;78.30
14733;DHT22;7457;50.960;6.830;2023-03-12T17:46:05;9.80;78.40
14733;DHT22;7457;50.960;6.830;2023-03-12T17:48:32;9.80;78.40